createdAt,value
2023-02-15T00:02:44.287Z,-2.20
2023-02-15T00:05:50.931Z,-2.20
2023-02-15T00:08:57.633Z,-2.37
2023-02-15T00:12:04.405Z,-2.19
2023-02-15T00:15:10.782Z,-2.47
2023-02-15T00:18:18.813Z,-2.40
2023-02-15T00:21:25.335Z,-2.35
2023-02-15T00:24:31.640Z,-2.14
2023-02-15T00:27:38.353Z,-1.96
2023-02-15T00:30:45.331Z,-2.10
2023-02-15T00:33:53.204Z,-2.10
2023-02-15T00:36:59.676Z,-2.12
2023-02-15T00:40:07.518Z,-2.16
2023-02-15T00:43:14.024Z,-1.93
2023-02-15T00:46:20.037Z,-2.00
2023-02-15T00:49:27.820Z,-2.09
2023-02-15T00:52:34.164Z,-2.05
2023-02-15T00:55:41.394Z,-2.13
2023-02-15T00:58:48.104Z,-1.89
2023-02-15T01:01:54.595Z,-1.97
2023-02-15T01:05:02.577Z,-2.11
2023-02-15T01:08:09.390Z,-2.40
2023-02-15T01:11:23.016Z,-2.56
2023-02-15T01:14:29.479Z,-2.64
2023-02-15T01:17:35.708Z,-2.38
2023-02-15T01:20:43.296Z,-2.58
2023-02-15T01:23:49.693Z,-2.46
2023-02-15T01:26:56.068Z,-2.60
2023-02-15T01:30:02.341Z,-2.30
2023-02-15T01:33:08.670Z,-2.59
2023-02-15T01:36:18.484Z,-2.41
2023-02-15T01:39:25.071Z,-2.52
2023-02-15T01:42:33.162Z,-2.43
2023-02-15T01:45:39.917Z,-2.61
2023-02-15T01:48:48.874Z,-2.50
2023-02-15T01:51:56.693Z,-2.75
2023-02-15T01:55:03.602Z,-2.78
2023-02-15T01:58:10.253Z,-2.73
2023-02-15T02:01:16.791Z,-2.75
2023-02-15T02:04:31.451Z,-2.61
2023-02-15T02:07:42.825Z,-2.74
2023-02-15T02:10:49.196Z,-2.83
2023-02-15T02:13:57.425Z,-2.84
2023-02-15T02:17:12.089Z,-2.90
2023-02-15T02:20:59.495Z,-2.81
2023-02-15T02:24:33.685Z,-2.71
2023-02-15T02:27:43.689Z,-3.39
2023-02-15T02:31:23.212Z,-3.92
2023-02-15T02:34:36.473Z,-3.78
2023-02-15T02:37:52.857Z,-4.29
2023-02-15T02:41:10.806Z,-3.89
2023-02-15T02:44:21.596Z,-3.32
2023-02-15T02:47:33.132Z,-3.34
2023-02-15T02:50:42.108Z,-3.33
2023-02-15T02:53:48.598Z,-3.19
2023-02-15T02:56:57.052Z,-3.13
2023-02-15T03:00:06.628Z,-3.32
2023-02-15T03:03:16.926Z,-3.46
2023-02-15T03:06:30.731Z,-3.15
2023-02-15T03:09:45.456Z,-3.10
2023-02-15T03:12:53.355Z,-3.40
2023-02-15T03:16:18.381Z,-3.15
2023-02-15T03:19:29.938Z,-3.42
2023-02-15T03:22:40.800Z,-3.63
2023-02-15T03:25:53.757Z,-3.49
2023-02-15T03:29:03.000Z,-3.68
2023-02-15T03:32:13.428Z,-3.35
2023-02-15T03:35:23.692Z,-3.80
2023-02-15T03:38:38.823Z,-3.36
2023-02-15T03:41:52.263Z,-3.46
2023-02-15T03:45:02.013Z,-3.45
2023-02-15T03:48:09.437Z,-3.69
2023-02-15T03:51:39.207Z,-3.65
2023-02-15T03:54:48.191Z,-3.75
2023-02-15T03:58:12.104Z,-3.90
2023-02-15T04:01:45.685Z,-3.57
2023-02-15T04:04:52.305Z,-4.73
2023-02-15T04:07:58.735Z,-4.61
2023-02-15T04:11:05.389Z,-4.44
2023-02-15T04:14:25.308Z,-4.84
2023-02-15T04:17:31.898Z,-4.99
2023-02-15T04:20:55.786Z,-4.85
2023-02-15T04:24:19.879Z,-4.84
2023-02-15T04:27:27.677Z,-4.48
2023-02-15T04:30:34.094Z,-5.06
2023-02-15T04:33:40.323Z,-4.68
2023-02-15T04:36:46.617Z,-4.51
2023-02-15T04:39:52.854Z,-4.16
2023-02-15T04:43:00.747Z,-3.92
2023-02-15T04:46:07.456Z,-4.11
2023-02-15T04:49:13.966Z,-4.36
2023-02-15T04:52:20.015Z,-4.45
2023-02-15T04:55:27.819Z,-4.79
2023-02-15T04:58:36.213Z,-4.59
2023-02-15T05:01:42.636Z,-4.75
2023-02-15T05:04:48.917Z,-4.14
2023-02-15T05:07:55.430Z,-4.40
2023-02-15T05:11:02.062Z,-4.66
2023-02-15T05:14:10.035Z,-4.65
2023-02-15T05:17:16.395Z,-4.35
2023-02-15T05:20:22.661Z,-4.65
2023-02-15T05:23:29.334Z,-4.94
2023-02-15T05:26:53.226Z,-4.60
2023-02-15T05:30:01.372Z,-4.59
2023-02-15T05:33:08.342Z,-4.68
2023-02-15T05:36:14.928Z,-5.80
2023-02-15T05:39:21.476Z,-6.13
2023-02-15T05:42:27.854Z,-6.27
2023-02-15T05:45:35.786Z,-5.46
2023-02-15T05:48:42.281Z,-5.15
2023-02-15T05:51:48.477Z,-5.07
2023-02-15T05:54:55.265Z,-4.54
2023-02-15T05:58:01.607Z,-4.06
2023-02-15T06:01:15.789Z,-3.77
2023-02-15T06:04:22.227Z,-3.70
2023-02-15T06:07:28.813Z,-3.67
2023-02-15T06:10:34.999Z,-3.77
2023-02-15T06:13:41.126Z,-3.67
2023-02-15T06:16:48.769Z,-3.26
2023-02-15T06:19:55.145Z,-2.99
2023-02-15T06:23:01.193Z,-2.62
2023-02-15T06:26:07.171Z,-2.53
2023-02-15T06:29:13.470Z,-2.94
2023-02-15T06:32:21.067Z,-2.69
2023-02-15T06:35:27.754Z,-2.42
2023-02-15T06:38:34.127Z,-2.49
2023-02-15T06:41:41.422Z,-2.10
2023-02-15T06:44:47.898Z,-2.34
2023-02-15T06:47:55.543Z,-2.41
2023-02-15T06:51:01.658Z,-2.78
2023-02-15T06:54:08.192Z,-2.18
2023-02-15T06:57:15.012Z,-2.16
2023-02-15T07:00:23.329Z,-1.80
2023-02-15T07:03:31.241Z,-1.75
2023-02-15T07:06:37.828Z,-1.64
2023-02-15T07:09:44.176Z,-1.26
2023-02-15T07:12:50.383Z,-1.26
2023-02-15T07:15:56.398Z,-1.31
2023-02-15T07:19:04.096Z,-0.83
2023-02-15T07:22:10.690Z,-0.49
2023-02-15T07:25:17.224Z,-0.19
2023-02-15T07:28:23.195Z,-0.19
2023-02-15T07:31:29.486Z,0.27
2023-02-15T07:34:37.014Z,0.14
2023-02-15T07:37:43.146Z,0.46
2023-02-15T07:40:49.732Z,0.58
2023-02-15T07:43:56.118Z,0.86
2023-02-15T07:47:02.449Z,0.95
2023-02-15T07:50:11.163Z,1.36
2023-02-15T07:53:17.542Z,1.40
2023-02-15T07:56:23.912Z,1.68
2023-02-15T07:59:29.976Z,1.38
2023-02-15T08:02:38.187Z,1.82
2023-02-15T08:05:47.214Z,2.05
2023-02-15T08:08:54.173Z,1.83
2023-02-15T08:12:00.375Z,1.96
2023-02-15T08:15:07.320Z,1.94
2023-02-15T08:18:13.967Z,1.94
2023-02-15T08:21:24.541Z,1.72
2023-02-15T08:24:33.386Z,2.36
2023-02-15T08:27:39.871Z,2.61
2023-02-15T08:30:46.358Z,2.19
2023-02-15T08:33:54.331Z,2.58
2023-02-15T08:37:02.357Z,2.34
2023-02-15T08:40:09.974Z,2.87
2023-02-15T08:43:16.200Z,2.47
2023-02-15T08:46:24.415Z,2.73
2023-02-15T08:49:30.934Z,3.44
2023-02-15T08:52:38.905Z,3.89
2023-02-15T08:55:44.887Z,3.78
2023-02-15T08:58:51.299Z,3.67
2023-02-15T09:01:58.105Z,3.79
2023-02-15T09:05:04.953Z,3.43
2023-02-15T09:08:12.309Z,4.02
2023-02-15T09:11:25.056Z,3.76
2023-02-15T09:14:31.558Z,4.08
2023-02-15T09:17:37.755Z,4.43
2023-02-15T09:20:43.835Z,4.29
2023-02-15T09:23:52.669Z,4.90
2023-02-15T09:26:58.789Z,5.42
2023-02-15T09:30:05.222Z,5.18
2023-02-15T09:33:11.632Z,5.04
2023-02-15T09:36:19.841Z,5.22
2023-02-15T09:39:29.159Z,5.35
2023-02-15T09:42:58.862Z,5.66
2023-02-15T09:46:20.939Z,5.55
2023-02-15T09:49:40.497Z,5.53
2023-02-15T09:53:08.049Z,6.39
2023-02-15T09:56:25.275Z,5.60
2023-02-15T09:59:44.374Z,6.94
2023-02-15T10:03:06.946Z,6.17
2023-02-15T10:06:34.091Z,5.82
2023-02-15T10:09:53.848Z,6.31
2023-02-15T10:13:15.513Z,6.70
2023-02-15T10:16:30.805Z,6.74
2023-02-15T10:19:45.651Z,6.26
2023-02-15T10:23:10.781Z,6.73
2023-02-15T10:26:21.204Z,7.01
2023-02-15T10:29:34.261Z,7.12
2023-02-15T10:32:50.972Z,7.98
2023-02-15T10:36:08.880Z,8.23
2023-02-15T10:39:22.353Z,8.59
2023-02-15T10:42:37.939Z,7.76
2023-02-15T10:45:55.559Z,7.23
2023-02-15T10:49:21.679Z,7.44
2023-02-15T10:52:35.774Z,8.07
2023-02-15T10:55:53.634Z,8.51
2023-02-15T10:59:22.126Z,8.20
2023-02-15T11:02:42.651Z,8.36
2023-02-15T11:06:00.411Z,7.50
2023-02-15T11:09:12.800Z,8.43
2023-02-15T11:12:24.788Z,7.89
2023-02-15T11:15:35.681Z,7.92
2023-02-15T11:18:49.011Z,8.08
2023-02-15T11:22:00.342Z,7.89
2023-02-15T11:25:19.736Z,8.09
2023-02-15T11:28:32.124Z,8.15
2023-02-15T11:31:46.174Z,7.87
2023-02-15T11:34:58.246Z,8.34
2023-02-15T11:38:12.370Z,8.79
2023-02-15T11:41:25.351Z,9.40
2023-02-15T11:44:37.295Z,8.76
2023-02-15T11:47:43.492Z,9.25
2023-02-15T11:50:50.892Z,8.72
2023-02-15T11:53:58.009Z,8.71
2023-02-15T11:57:16.888Z,8.53
2023-02-15T12:00:37.076Z,8.51
2023-02-15T12:03:49.199Z,9.21
2023-02-15T12:07:02.736Z,9.33
2023-02-15T12:10:21.661Z,8.86
2023-02-15T12:13:28.030Z,9.05
2023-02-15T12:16:43.348Z,9.63
2023-02-15T12:19:53.610Z,9.16
2023-02-15T12:23:06.142Z,9.08
2023-02-15T12:26:13.444Z,9.50
2023-02-15T12:29:23.997Z,9.46
2023-02-15T12:32:33.133Z,9.51
2023-02-15T12:35:39.275Z,9.05
2023-02-15T12:39:05.226Z,9.32
2023-02-15T12:42:20.454Z,9.83
2023-02-15T12:45:30.226Z,9.04
2023-02-15T12:48:40.787Z,9.07
2023-02-15T12:51:50.449Z,9.52
2023-02-15T12:55:12.046Z,9.45
2023-02-15T12:58:19.822Z,9.92
2023-02-15T13:01:27.820Z,10.12
2023-02-15T13:04:34.653Z,9.32
2023-02-15T13:07:40.645Z,9.84
2023-02-15T13:10:58.359Z,10.08
2023-02-15T13:14:06.140Z,10.14
2023-02-15T13:17:14.485Z,10.38
2023-02-15T13:20:23.960Z,9.86
2023-02-15T13:23:33.278Z,10.53
2023-02-15T13:26:45.833Z,10.27
2023-02-15T13:29:55.005Z,10.15
2023-02-15T13:33:05.186Z,10.30
2023-02-15T13:36:19.172Z,10.46
2023-02-15T13:39:31.425Z,10.86
2023-02-15T13:42:42.685Z,10.91
2023-02-15T13:46:03.737Z,10.31
2023-02-15T13:49:21.243Z,10.72
2023-02-15T13:52:30.981Z,10.45
2023-02-15T13:55:48.096Z,10.30
2023-02-15T13:59:22.213Z,11.06
2023-02-15T14:02:54.701Z,10.52
2023-02-15T14:06:21.753Z,9.31
2023-02-15T14:09:42.859Z,10.74
2023-02-15T14:13:03.887Z,10.44
2023-02-15T14:16:19.698Z,9.76
2023-02-15T14:19:33.519Z,10.16
2023-02-15T14:22:44.210Z,9.10
2023-02-15T14:25:57.524Z,9.22
2023-02-15T14:29:16.222Z,8.65
2023-02-15T14:32:32.393Z,8.16
2023-02-15T14:35:39.530Z,8.24
2023-02-15T14:38:58.111Z,8.03
2023-02-15T14:42:10.508Z,7.62
2023-02-15T14:45:21.642Z,7.65
2023-02-15T14:48:33.704Z,7.40
2023-02-15T14:52:01.108Z,7.20
2023-02-15T14:55:09.454Z,6.99
2023-02-15T14:58:16.131Z,7.14
2023-02-15T15:01:29.064Z,6.98
2023-02-15T15:04:40.375Z,7.07
2023-02-15T15:07:49.326Z,7.01
2023-02-15T15:10:56.703Z,6.67
2023-02-15T15:14:03.472Z,6.40
2023-02-15T15:17:13.905Z,6.21
2023-02-15T15:20:42.977Z,6.03
2023-02-15T15:23:49.869Z,6.18
2023-02-15T15:27:46.240Z,6.01
2023-02-15T15:30:53.264Z,5.56
2023-02-15T15:34:35.286Z,5.65
2023-02-15T15:38:01.657Z,5.80
2023-02-15T15:41:21.107Z,5.69
2023-02-15T15:45:05.585Z,5.72
2023-02-15T15:48:31.905Z,5.50
2023-02-15T15:51:43.794Z,5.51
2023-02-15T15:54:57.068Z,5.59
2023-02-15T15:58:06.550Z,5.28
2023-02-15T16:01:14.889Z,5.37
2023-02-15T16:04:27.465Z,4.99
2023-02-15T16:07:34.119Z,4.58
2023-02-15T16:10:43.151Z,4.97
2023-02-15T16:13:49.807Z,4.25
2023-02-15T16:16:59.499Z,4.46
2023-02-15T16:20:13.793Z,4.02
2023-02-15T16:23:49.912Z,3.93
2023-02-15T16:27:14.040Z,3.95
2023-02-15T16:30:24.561Z,3.44
2023-02-15T16:33:38.640Z,3.64
2023-02-15T16:36:44.878Z,3.36
2023-02-15T16:39:52.451Z,3.17
2023-02-15T16:43:04.171Z,3.32
2023-02-15T16:46:14.618Z,2.99
2023-02-15T16:49:23.353Z,2.96
2023-02-15T16:52:31.390Z,2.87
2023-02-15T16:55:42.236Z,2.71
2023-02-15T16:58:53.114Z,2.65
2023-02-15T17:02:00.285Z,2.53
2023-02-15T17:05:24.918Z,2.44
2023-02-15T17:08:33.437Z,2.41
2023-02-15T17:11:43.650Z,2.07
2023-02-15T17:14:57.118Z,2.29
2023-02-15T17:18:07.119Z,1.92
2023-02-15T17:21:16.317Z,2.02
2023-02-15T17:24:33.895Z,1.67
2023-02-15T17:27:40.598Z,1.98
2023-02-15T17:30:49.724Z,1.60
2023-02-15T17:33:56.973Z,1.77
2023-02-15T17:37:03.505Z,1.48
2023-02-15T17:40:21.074Z,1.61
2023-02-15T17:43:27.467Z,1.57
2023-02-15T17:46:39.174Z,1.57
2023-02-15T17:49:46.608Z,1.28
2023-02-15T17:52:53.395Z,1.43
2023-02-15T17:56:00.070Z,1.39
2023-02-15T17:59:07.759Z,1.38
2023-02-15T18:02:33.065Z,1.37
2023-02-15T18:05:57.076Z,1.19
2023-02-15T18:09:21.270Z,1.17
2023-02-15T18:12:29.807Z,1.30
2023-02-15T18:15:36.648Z,1.17
2023-02-15T18:18:46.229Z,1.01
2023-02-15T18:21:55.788Z,1.02
2023-02-15T18:25:02.388Z,0.91
2023-02-15T18:28:09.647Z,1.16
2023-02-15T18:31:16.882Z,1.00
2023-02-15T18:34:29.261Z,0.80
2023-02-15T18:37:35.588Z,0.99
2023-02-15T18:40:42.186Z,0.68
2023-02-15T18:43:51.159Z,0.46
2023-02-15T18:46:57.558Z,0.25
2023-02-15T18:50:05.368Z,0.08
2023-02-15T18:53:18.282Z,-0.01
2023-02-15T18:56:24.749Z,0.49
2023-02-15T18:59:32.588Z,0.17
2023-02-15T19:02:39.181Z,0.26
2023-02-15T19:05:48.402Z,0.22
2023-02-15T19:08:55.003Z,-0.10
2023-02-15T19:12:01.477Z,-0.16
2023-02-15T19:15:09.719Z,-0.24
2023-02-15T19:18:17.047Z,0.03
2023-02-15T19:21:25.548Z,-0.04
2023-02-15T19:24:39.717Z,-0.22
2023-02-15T19:27:47.195Z,-0.30
2023-02-15T19:30:53.731Z,-0.72
2023-02-15T19:33:59.871Z,-0.62
2023-02-15T19:37:13.119Z,-0.70
2023-02-15T19:40:22.775Z,-0.55
2023-02-15T19:43:30.301Z,-0.70
2023-02-15T19:46:37.524Z,-0.49
2023-02-15T19:49:43.772Z,-0.28
2023-02-15T19:52:51.777Z,-0.15
2023-02-15T19:55:58.252Z,-0.24
2023-02-15T19:59:04.625Z,-0.21
2023-02-15T20:02:14.828Z,-0.24
2023-02-15T20:05:21.462Z,-0.49
2023-02-15T20:08:30.771Z,-0.37
2023-02-15T20:11:36.864Z,-0.30
2023-02-15T20:14:43.433Z,-0.43
2023-02-15T20:17:50.130Z,-0.47
2023-02-15T20:20:56.797Z,-0.52
2023-02-15T20:24:05.557Z,-0.55
2023-02-15T20:27:17.185Z,-0.50
2023-02-15T20:30:26.306Z,-0.55
2023-02-15T20:33:32.563Z,-0.64
2023-02-15T20:36:40.117Z,-0.65
2023-02-15T20:39:47.877Z,-0.57
2023-02-15T20:42:54.512Z,-0.83
2023-02-15T20:46:01.089Z,-0.81
2023-02-15T20:49:07.703Z,-0.80
2023-02-15T20:52:20.765Z,-1.93
2023-02-15T20:55:30.367Z,-2.22
2023-02-15T20:58:38.722Z,-1.59
2023-02-15T21:01:46.358Z,-1.80
2023-02-15T21:04:53.299Z,-1.90
2023-02-15T21:07:59.858Z,-1.91
2023-02-15T21:11:19.416Z,-1.37
2023-02-15T21:14:28.302Z,-1.34
2023-02-15T21:17:34.598Z,-1.34
2023-02-15T21:20:45.409Z,-1.33
2023-02-15T21:23:53.867Z,-1.39
2023-02-15T21:27:03.961Z,-1.71
2023-02-15T21:30:16.317Z,-1.84
2023-02-15T21:33:22.863Z,-2.04
2023-02-15T21:36:29.465Z,-1.75
2023-02-15T21:39:37.858Z,-1.63
2023-02-15T21:43:03.136Z,-1.38
2023-02-15T21:46:32.249Z,-1.33
2023-02-15T21:49:38.848Z,-1.40
2023-02-15T21:52:44.928Z,-1.48
2023-02-15T21:55:58.822Z,-1.34
2023-02-15T21:59:11.425Z,-1.47
2023-02-15T22:02:28.886Z,-1.53
2023-02-15T22:05:35.308Z,-1.49
2023-02-15T22:08:41.776Z,-2.34
2023-02-15T22:11:48.892Z,-1.98
2023-02-15T22:14:56.881Z,-2.44
2023-02-15T22:18:03.722Z,-2.47
2023-02-15T22:21:12.104Z,-2.38
2023-02-15T22:24:18.645Z,-2.56
2023-02-15T22:27:27.818Z,-2.17
2023-02-15T22:30:38.217Z,-2.01
2023-02-15T22:33:45.840Z,-2.14
2023-02-15T22:36:52.218Z,-2.10
2023-02-15T22:39:58.410Z,-1.83
2023-02-15T22:43:06.952Z,-1.97
2023-02-15T22:46:20.193Z,-1.85
2023-02-15T22:49:26.327Z,-2.21
2023-02-15T22:52:32.599Z,-2.77
2023-02-15T22:55:39.880Z,-2.48
2023-02-15T22:58:48.433Z,-2.29
2023-02-15T23:01:56.719Z,-2.26
2023-02-15T23:05:02.760Z,-2.37
2023-02-15T23:08:10.110Z,-2.04
2023-02-15T23:11:16.501Z,-2.23
2023-02-15T23:14:27.597Z,-2.40
2023-02-15T23:17:34.920Z,-2.17
2023-02-15T23:20:41.169Z,-2.31
2023-02-15T23:23:50.211Z,-3.35
2023-02-15T23:27:16.334Z,-3.33
2023-02-15T23:30:23.287Z,-2.87
2023-02-15T23:33:34.190Z,-2.78
2023-02-15T23:36:41.224Z,-2.66
2023-02-15T23:40:05.064Z,-2.52
2023-02-15T23:43:21.142Z,-2.72
2023-02-15T23:46:30.276Z,-2.90
2023-02-15T23:49:38.138Z,-2.59
2023-02-15T23:52:44.270Z,-2.53
2023-02-15T23:55:50.682Z,-2.58
2023-02-15T23:58:56.718Z,-3.87
